ADDS METAR Data INFO
IDs: Format: Raw Decoded Include TAF

Data at: 1612 UTC 14 Aug 2018

KPWC 141555Z AUTO 08003KT 10SM CLR 17/14 A3003 RMK AO2 P0002
KPWC 141535Z AUTO 00000KT 10SM CLR 16/14 A3004 RMK AO2 P0002 P0002
KPWC 141515Z AUTO 01003KT 10SM -RA SCT019 SCT024 16/14 A3003 RMK AO2 P0002 P0002
KPWC 141455Z AUTO 32004KT 7SM RA SCT019 BKN025 BKN038 16/14 A3005 RMK AO2 P0001 P0001
KPWC 141435Z AUTO 04004KT 10SM RA SCT019 BKN027 OVC040 16/14 A3001 RMK AO2 P0005 LTG DSNT S P0005
KPWC 141415Z AUTO 00000KT 10SM -RA SCT022 BKN027 BKN039 16/14 A3003 RMK AO2 P0003 LTG DSNT S AND SW P0003
KPWC 141355Z AUTO 00000KT 10SM SCT055 SCT080 17/13 A3003 RMK AO2 LTG DSNT S
KPWC 141335Z AUTO 00000KT 10SM SCT080 17/13 A3002 RMK AO2 LTG DSNT SW
KPWC 141315Z AUTO 00000KT 10SM CLR 17/13 A3001 RMK AO2 LTG DSNT S
KPWC 141255Z AUTO 03004KT 10SM CLR 17/14 A3000 RMK AO2
KPWC 141235Z AUTO 00000KT 10SM SCT038 17/14 A3000 RMK AO2
KPWC 141215Z AUTO 00000KT 10SM BKN038 17/14 A3001 RMK AO2
KPWC 141155Z AUTO 36003KT 10SM OVC036 17/14 A3000 RMK AO2
KPWC 141135Z AUTO 36005KT 10SM BKN036 17/14 A3000 RMK AO2
KPWC 141115Z AUTO 31007G14KT 274V334 10SM SCT036 17/13 A3001 RMK AO2
KPWC 141055Z AUTO 10008KT 10SM SCT038 120 17/13 A2994 RMK AO2
KPWC 141035Z AUTO 03007KT 10SM -RA OVC038 18/14 A2998 RMK AO2 LTG DSNT NE
KPWC 141015Z AUTO 35006KT 10SM VCTS BKN038 BKN075 18/14 A3000 RMK AO2 LTG DSNT N
KPWC 140955Z AUTO 35004KT 10SM SCT075 18/15 A2999 RMK AO2
KPWC 140935Z AUTO 36004KT 10SM BKN075 18/15 A2999 RMK AO2 LTG DSNT W AND NW
KPWC 140915Z AUTO 00000KT 10SM BKN075 BKN110 17/15 A2998 RMK AO2 LTG DSNT W
KPWC 140855Z AUTO 00000KT 10SM SCT110 17/14 A2998 RMK AO2
KPWC 140835Z AUTO 00000KT 10SM CLR 18/14 A2997 RMK AO2
KPWC 140815Z AUTO 00000KT 10SM CLR 19/15 A2998 RMK AO2 LTG DSNT W
KPWC 140755Z AUTO 01003KT 10SM CLR 19/16 A2997 RMK AO2
KPWC 140735Z AUTO 01003KT 10SM CLR 19/16 A2997 RMK AO2
KPWC 140715Z AUTO 01004KT 10SM CLR 20/16 A2997 RMK AO2 LTG DSNT W
KPWC 140655Z AUTO 36006KT 10SM CLR 21/16 A2997 RMK AO2
KPWC 140635Z AUTO 35009KT 10SM CLR 21/16 A2998 RMK AO2
KPWC 140615Z AUTO 35008KT 10SM CLR 22/17 A2998 RMK AO2
KPWC 140555Z AUTO 34006KT 10SM CLR 22/18 A2998 RMK AO2
KPWC 140535Z AUTO 00000KT 10SM CL 22/18 A2997 RMK AO2
KPWC 140515Z AUTO 00000KT 10SM CLR 22/18 A2997 RMK AO2
KPWC 140455Z AUTO 10SM CLR 21/17 A2997 RMK AO2
KPWC 140435Z AUTO 00000KT 10SM SCT070 22/18 A2996 RMK AO2
KPWC 140415Z AUTO 00000KT 10SM SCT080 23/18 A2996 RMK AO2
KPWC 140355Z AUTO 00000KT 10SM SCT080 23/18 A2996 RMK AO2
KPWC 140335Z AUTO 00000KT 10SM SCT070 SCT075 22/17 A2996 RMK AO2
KPWC 140315Z AUTO 00000KT 10SM SCT060 21/17 A2995 RMK AO2
KPWC 140255Z AUTO 00000KT 10SM SCT060 22/18 A2996 RMK AO2
KPWC 140235Z AUTO 00000KT 10SM SCT060 23/18 A2995 RMK AO2
KPWC 140215Z AUTO 00000KT 10SM SCT060 23/18 A2995 RMK AO2
KPWC 140155Z AUTO 00000KT 10SM SCT070 24/18 A2995 RMK AO2
KPWC 140135Z AUTO 00000KT 10SM CLR 24/18 A2995 RMK AO2 LTG DSNT NW
KPWC 140115Z AUTO 00000KT 10SM CLR 25/18 A2994 RMK AO2
KPWC 140055Z AUTO 00000KT 10SM CLR 26/18 A2994 RMK AO2
KPWC 140035Z AUTO 00000KT 10SM CLR 27/18 A2993 RMK AO2
KPWC 140016Z AUTO 21003KT 10SM CLR 27/17 A2993 RMK AO2
KPWC 132355Z AUTO 20004KT 10SM CLR 28/17 A2993 RMK AO2
KPWC 132335Z AUTO 21006KT 10SM CLR 28/17 A2994 RMK AO2
KPWC 132315Z AUTO 21007KT 194V264 10SM CLR 29/16 A2994 RMK AO2
KPWC 132255Z AUTO 21008KT 10SM CLR 29/17 A2994 RMK AO2
KPWC 132235Z AUTO 22007KT 10SM CLR 29/17 A2994 RMK AO2
KPWC 132215Z AUTO 21009G14KT 10SM CLR 30/17 A2994 RMK AO2
KPWC 132155Z AUTO 22008KT 10SM CLR 30/17 A2993 RMK AO2
KPWC 132135Z AUTO 20008G14KT 10SM CLR 30/18 A2994 RMK AO2
KPWC 132115Z AUTO 20011G16KT 10SM CLR 30/17 A2994 RMK AO2
KPWC 132055Z AUTO 20008KT 10SM CLR 30/18 A2995 RMK AO2
KPWC 132035Z AUTO 20008G15KT 10SM CLR 30/18 A2995 RMK AO2
KPWC 132015Z AUTO 21011G16KT 10SM CLR 30/18 A2996 RMK AO2
KPWC 131955Z AUTO 20009G18KT 10SM CLR 29/18 A2996 RMK AO2
KPWC 131935Z AUTO 21008G16KT 10SM CLR 29/18 A2996 RMK AO2
KPWC 131915Z AUTO 20011G18KT 10SM CLR 29/18 A2996 RMK AO2
KPWC 131855Z AUTO 19011G18KT 10SM CLR 29/18 A2997 RMK AO2
KPWC 131835Z AUTO 19013G16KT 10SM CLR 29/18 A2997 RMK AO2
KPWC 131815Z AUTO 20009KT 10SM CLR 28/18 A2997 RMK AO2
KPWC 131755Z AUTO 20012G17KT 10SM CLR 28/18 A2997 RMK AO2
KPWC 131735Z AUTO 19012G16KT 10SM CLR 28/18 A2998 RMK AO2
KPWC 131715Z AUTO 21009G14KT 10SM CLR 27/19 A2998 RMK AO2
KPWC 131655Z AUTO 22009G15KT 10SM CLR 27/18 A2999 RMK AO2
KPWC 131635Z AUTO 20009KT 10SM CLR 26/18 A3000 RMK AO2
KPWC 131615Z AUTO 21008KT 10SM CLR 26/18 A3000 RMK AO2
KPWC 131555Z AUTO 20006G15KT 10SM CLR 26/18 A3000 RMK AO2
KPWC 131535Z AUTO 21008KT 10SM CLR 24/18 A3001 RMK AO2
KPWC 131515Z AUTO 20005KT 10SM CLR 24/18 A3001 RMK AO2
KPWC 131455Z AUTO 19007KT 10SM CLR 23/18 A3001 RMK AO2
KPWC 131435Z AUTO 20006KT 10SM CLR 23/18 A3002 RMK AO2
KPWC 131415Z AUTO 18005KT 10SM CLR 22/18 A3002 RMK AO2
KPWC 131355Z AUTO 19005KT 10SM CLR 21/17 A3003 RMK AO2
KPWC 131335Z AUTO 19005KT 10SM CLR 21/17 A3002 RMK AO2
KPWC 131315Z AUTO 19005KT 10SM CLR 20/17 A3003 RMK AO2
KPWC 131255Z AUTO 17004KT 10SM CLR 19/17 A3003 RMK AO2
KPWC 131235Z AUTO 17003KT 10SM CLR 18/17 A3003 RMK AO2
KPWC 131215Z AUTO 16003KT 7SM CLR 18/17 A3003 RMK AO2
KPWC 131155Z AUTO 15003KT 10SM CLR 18/16 A3003 RMK AO2
KPWC 131135Z AUTO 00000KT 10SM CLR 18/16 A3003 RMK AO2
KPWC 131115Z AUTO 00000KT 10SM CLR 18/16 A3003 RMK AO2
KPWC 131055Z AUTO 17003KT 10SM CLR 18/17 A3003 RMK AO2
KPWC 131035Z AUTO 17003KT 10SM CLR 18/17 A3003 RMK AO2
KPWC 131015Z AUTO 00000KT 10SM CLR 18/17 A3003 RMK AO2
KPWC 130955Z AUTO 00000KT 10SM CLR 18/17 A3003 RMK AO2
KPWC 130935Z AUTO 17003KT 10SM CLR 19/17 A3003 RMK AO2
KPWC 130915Z AUTO 17004KT 10SM CLR 19/17 A3003 RMK AO2
KPWC 130855Z AUTO 17004KT 10SM CLR 19/17 A3003 RMK AO2
KPWC 130835Z AUTO 17004KT 10SM CLR 19/17 A3003 RMK AO2
KPWC 130815Z AUTO 17004KT 10SM CLR 19/17 A3003 RMK AO2
KPWC 130755Z AUTO 16004KT 10SM CLR 18/17 A3004 RMK AO2
KPWC 130735Z AUTO 16003KT 10SM CLR 19/17 A3004 RMK AO2
KPWC 130715Z AUTO 16004KT 10SM CLR 19/17 A3005 RMK AO2
KPWC 130655Z AUTO 16003KT 10SM CLR 19/17 A3005 RMK AO2
KPWC 130635Z AUTO 17005KT 10SM CLR 20/18 A3005 RMK AO2
KPWC 130615Z AUTO 17003KT 10SM CLR 20/18 A3005 RMK AO2
KPWC 130555Z AUTO 17003KT 10SM CLR 21/18 A3005 RMK AO2
KPWC 130535Z AUTO 17004KT 10SM CLR 21/18 A3005 RMK AO2
KPWC 130515Z AUTO 17006KT 10SM CLR 21/18 A3005 RMK AO2
KPWC 130455Z AUTO 17004KT 10SM CLR 21/18 A3005 RMK AO2
KPWC 130435Z AUTO 17005KT 10SM CLR 21/18 A3005 RMK AO2
KPWC 130415Z AUTO 17005KT 10SM CLR 21/18 A3005 RMK AO2